createdAt,value
2019-05-30T00:00:17.734Z,2
2019-05-30T00:01:16.194Z,1.9
2019-05-30T00:02:16.248Z,2
2019-05-30T00:03:16.446Z,1.9
2019-05-30T00:04:16.308Z,2.2
2019-05-30T00:05:16.419Z,2
2019-05-30T00:06:16.449Z,1.8
2019-05-30T00:07:16.458Z,1.9
2019-05-30T00:08:16.461Z,1.9
2019-05-30T00:09:16.495Z,1.9
2019-05-30T00:10:16.517Z,1.8
2019-05-30T00:11:16.477Z,2.2
2019-05-30T00:12:16.643Z,2.2
2019-05-30T00:13:16.865Z,2
2019-05-30T00:14:16.936Z,1.8
2019-05-30T00:15:16.999Z,2
2019-05-30T00:16:17.003Z,2.1
2019-05-30T00:17:17.172Z,1.9
2019-05-30T00:18:17.218Z,1.8
2019-05-30T00:19:17.220Z,1.7
2019-05-30T00:20:17.375Z,1.9
2019-05-30T00:21:17.411Z,1.7
2019-05-30T00:22:17.452Z,1.9
2019-05-30T00:23:17.551Z,1.8
2019-05-30T00:24:17.550Z,1.7
2019-05-30T00:25:17.546Z,1.9
2019-05-30T00:26:17.551Z,2
2019-05-30T00:27:18.657Z,1.9
2019-05-30T00:28:17.699Z,1.7
2019-05-30T00:29:17.705Z,1.7
2019-05-30T00:30:24.191Z,2.1
2019-05-30T00:31:20.274Z,1.7
2019-05-30T00:32:17.942Z,1.7
2019-05-30T00:33:17.969Z,1.6
2019-05-30T00:34:17.958Z,2
2019-05-30T00:35:18.104Z,2
2019-05-30T00:36:18.267Z,1.7
2019-05-30T00:37:18.248Z,1.6
2019-05-30T00:38:18.282Z,1.9
2019-05-30T00:39:18.296Z,1.8
2019-05-30T00:40:18.281Z,2
2019-05-30T00:41:18.459Z,1.8
2019-05-30T00:42:18.446Z,1.6
2019-05-30T00:43:18.651Z,1.9
2019-05-30T00:44:18.674Z,1.5
2019-05-30T00:45:21.121Z,1.8
2019-05-30T00:46:18.662Z,1.9
2019-05-30T00:47:18.680Z,2
2019-05-30T00:48:18.837Z,1.8
2019-05-30T00:49:18.941Z,1.7
2019-05-30T00:50:18.980Z,1.7
2019-05-30T00:51:18.959Z,1.9
2019-05-30T00:52:19.210Z,1.8
2019-05-30T00:53:19.242Z,1.7
2019-05-30T00:54:20.313Z,1.9
2019-05-30T01:03:19.840Z,1.8
2019-05-30T01:04:19.843Z,1.6
2019-05-30T01:05:19.853Z,1.8
2019-05-30T01:06:19.855Z,1.6
2019-05-30T01:07:19.917Z,1.8
2019-05-30T01:08:19.970Z,1.7
2019-05-30T01:09:20.003Z,1.7
2019-05-30T01:10:20.057Z,1.8
2019-05-30T01:11:20.095Z,1.6
2019-05-30T01:12:20.222Z,1.5
2019-05-30T01:13:20.221Z,1.5
2019-05-30T01:14:21.349Z,1.4
2019-05-30T01:15:20.360Z,1.5
2019-05-30T01:16:20.369Z,1.5
2019-05-30T01:17:20.370Z,1.3
2019-05-30T01:18:20.399Z,1.5
2019-05-30T01:19:20.390Z,1.3
2019-05-30T01:20:20.558Z,1.3
2019-05-30T01:21:20.596Z,1.6
2019-05-30T01:22:20.619Z,1.4
2019-05-30T01:23:20.671Z,1.4
2019-05-30T01:24:20.703Z,1.4
2019-05-30T01:25:20.730Z,1.4
2019-05-30T01:26:20.710Z,1.4
2019-05-30T01:27:20.680Z,1.4
2019-05-30T01:28:20.963Z,1.3
2019-05-30T01:29:20.940Z,1.2
2019-05-30T01:30:21.152Z,1.2
2019-05-30T01:31:21.152Z,1.3
2019-05-30T01:32:21.373Z,1.3
2019-05-30T01:33:21.366Z,1.3
2019-05-30T01:34:21.564Z,1.4
2019-05-30T01:35:21.627Z,1.4
2019-05-30T01:36:21.635Z,1.4
2019-05-30T01:37:21.605Z,1.4
2019-05-30T01:38:21.745Z,1.9
2019-05-30T01:39:21.992Z,1.2
2019-05-30T01:40:22.058Z,1.2
2019-05-30T01:41:22.080Z,1.4
2019-05-30T01:42:22.264Z,1.4
2019-05-30T01:43:22.288Z,1.4
2019-05-30T01:44:22.264Z,1.2
2019-05-30T01:45:22.448Z,1.3
2019-05-30T01:46:22.473Z,1.3
2019-05-30T01:47:22.481Z,1.3
2019-05-30T01:48:22.488Z,1.3
2019-05-30T01:49:22.482Z,1.1
2019-05-30T01:50:22.546Z,1.3
2019-05-30T01:51:22.549Z,1.4
2019-05-30T01:52:22.557Z,1.3
2019-05-30T01:53:22.555Z,1.4
2019-05-30T01:54:22.728Z,1.5
2019-05-30T01:55:22.815Z,1.4
2019-05-30T01:56:22.823Z,1.2
2019-05-30T01:57:22.818Z,1.4
2019-05-30T01:58:22.961Z,1.4
2019-05-30T01:59:23.129Z,1.3
2019-05-30T02:00:23.188Z,1.3
2019-05-30T02:01:25.269Z,1.3
2019-05-30T02:02:23.292Z,1.5
2019-05-30T02:03:23.266Z,1.3
2019-05-30T02:04:23.414Z,1.3
2019-05-30T02:05:23.380Z,1.3
2019-05-30T02:06:23.546Z,1.6
2019-05-30T02:07:23.516Z,1.6
2019-05-30T02:08:23.691Z,1.5
2019-05-30T02:09:23.644Z,1.4
2019-05-30T02:10:23.801Z,1.5
2019-05-30T02:11:23.998Z,1.4
2019-05-30T02:12:23.977Z,1.5
2019-05-30T02:13:24.132Z,1.6
2019-05-30T02:14:24.287Z,1.5
2019-05-30T02:15:24.419Z,1.9
2019-05-30T02:16:24.576Z,1.7
2019-05-30T02:17:24.537Z,1.4
2019-05-30T02:18:24.663Z,1.5
2019-05-30T02:19:24.793Z,1.6
2019-05-30T02:20:24.926Z,1.4
2019-05-30T02:21:25.094Z,1.2
2019-05-30T02:22:25.089Z,1.4
2019-05-30T02:23:25.214Z,1.4
2019-05-30T02:24:25.368Z,1.6
2019-05-30T02:25:25.354Z,1.5
2019-05-30T02:26:25.522Z,1.3
2019-05-30T02:27:25.660Z,1.5
2019-05-30T02:28:26.772Z,1.4
2019-05-30T02:29:25.916Z,1.4
2019-05-30T02:30:26.134Z,1.6
2019-05-30T02:31:38.140Z,1.6
2019-05-30T02:32:27.129Z,1.3
2019-05-30T02:33:26.216Z,1.4
2019-05-30T02:34:26.284Z,1.6
2019-05-30T02:35:26.330Z,1.5
2019-05-30T02:36:26.411Z,1.5
2019-05-30T02:37:26.447Z,1.6
2019-05-30T02:38:26.452Z,1.6
2019-05-30T02:39:26.514Z,1.7
2019-05-30T02:40:26.579Z,1.6
2019-05-30T02:41:26.600Z,1.6
2019-05-30T02:42:26.693Z,1.5
2019-05-30T02:43:26.758Z,1.7
2019-05-30T02:44:26.813Z,1.7
2019-05-30T02:45:26.865Z,1.8
2019-05-30T02:46:26.929Z,1.8
2019-05-30T02:47:28.060Z,1.9
2019-05-30T02:48:27.125Z,1.7
2019-05-30T02:49:27.196Z,1.7
2019-05-30T02:50:27.255Z,1.5
2019-05-30T02:51:27.319Z,1.5
2019-05-30T02:52:27.404Z,1.5
2019-05-30T02:53:27.516Z,1.7
2019-05-30T02:54:27.554Z,1.5
2019-05-30T02:55:27.622Z,1.8
2019-05-30T02:56:27.674Z,1.8
2019-05-30T02:57:27.772Z,1.8
2019-05-30T02:58:27.827Z,1.5
2019-05-30T02:59:27.881Z,1.8
2019-05-30T03:00:27.952Z,1.6
2019-05-30T03:01:28.010Z,2.1
2019-05-30T03:02:28.123Z,1.8
2019-05-30T03:03:28.178Z,1.6
2019-05-30T03:04:28.233Z,1.6
2019-05-30T03:05:28.285Z,1.8
2019-05-30T03:06:28.416Z,1.4
2019-05-30T03:07:28.622Z,1.7
2019-05-30T03:08:28.514Z,1.7
2019-05-30T03:09:28.571Z,1.8
2019-05-30T03:10:28.613Z,1.6
2019-05-30T03:11:28.697Z,1.7
2019-05-30T03:12:28.784Z,1.7
2019-05-30T03:13:28.873Z,1.6
2019-05-30T03:14:28.929Z,1.6
2019-05-30T03:15:29.027Z,1.8
2019-05-30T03:16:29.087Z,1.8
2019-05-30T03:17:29.163Z,1.7
2019-05-30T03:18:29.251Z,1.7
2019-05-30T03:19:29.315Z,1.9
2019-05-30T03:20:29.365Z,1.6
2019-05-30T03:21:29.430Z,1.8
2019-05-30T03:22:29.519Z,1.7
2019-05-30T03:23:29.623Z,1.7
2019-05-30T03:24:29.763Z,1.9
2019-05-30T03:25:29.827Z,1.7
2019-05-30T03:26:29.922Z,2
2019-05-30T03:27:29.971Z,1.8
2019-05-30T03:28:30.050Z,1.8
2019-05-30T03:29:30.162Z,1.9
2019-05-30T03:30:30.231Z,1.6
2019-05-30T03:31:30.534Z,1.7
2019-05-30T03:33:01.535Z,1.4
2019-05-30T03:33:39.923Z,1.6
2019-05-30T03:34:31.458Z,1.9
2019-05-30T03:35:35.614Z,1.8
2019-05-30T03:36:32.074Z,1.9
2019-05-30T03:39:30.695Z,1.6
2019-05-30T03:40:31.998Z,1.7
2019-05-30T03:41:30.904Z,1.9
2019-05-30T03:42:30.992Z,1.5
2019-05-30T03:43:31.104Z,1.7
2019-05-30T03:44:31.202Z,1.9
2019-05-30T03:45:31.257Z,2.4
2019-05-30T03:46:31.310Z,1.8
2019-05-30T03:47:31.404Z,1.7
2019-05-30T03:48:31.462Z,1.7
2019-05-30T03:49:31.662Z,1.6
2019-05-30T03:50:31.585Z,1.7
2019-05-30T03:51:31.714Z,1.7
2019-05-30T03:52:31.872Z,1.7
2019-05-30T03:53:31.770Z,1.7
2019-05-30T03:54:31.907Z,1.7
2019-05-30T03:55:31.857Z,1.8
2019-05-30T03:56:31.968Z,1.8
2019-05-30T03:57:32.100Z,2
2019-05-30T03:58:32.209Z,1.9
2019-05-30T03:59:32.392Z,1.8
2019-05-30T04:00:32.440Z,1.8
2019-05-30T04:01:32.396Z,2.1
2019-05-30T04:02:32.521Z,1.9
2019-05-30T04:03:32.680Z,1.6
2019-05-30T04:04:32.881Z,1.5
2019-05-30T04:05:32.860Z,1.8
2019-05-30T04:06:32.978Z,1.8
2019-05-30T04:07:33.107Z,1.8
2019-05-30T04:08:33.271Z,1.8
2019-05-30T04:09:33.299Z,2.1
2019-05-30T04:10:33.303Z,2
2019-05-30T04:11:33.282Z,2
2019-05-30T04:12:33.437Z,2.1
2019-05-30T04:13:33.431Z,2
2019-05-30T04:14:33.588Z,2
2019-05-30T04:15:33.579Z,1.9
2019-05-30T04:16:33.751Z,1.9
2019-05-30T04:17:33.716Z,1.9
2019-05-30T04:18:33.810Z,1.9
2019-05-30T04:19:33.924Z,2.3
2019-05-30T04:20:34.161Z,2.2
2019-05-30T04:21:34.116Z,2
2019-05-30T04:22:34.217Z,2.5
2019-05-30T04:23:34.485Z,2.1
2019-05-30T04:24:34.432Z,2.3
2019-05-30T04:25:34.648Z,2.1
2019-05-30T04:26:34.568Z,2.1
2019-05-30T04:27:34.642Z,2.3
2019-05-30T04:28:34.739Z,2.1
2019-05-30T04:29:34.823Z,2.3
2019-05-30T04:30:34.993Z,2.1
2019-05-30T04:31:34.941Z,2.1
2019-05-30T04:32:35.057Z,2.1
2019-05-30T04:33:35.177Z,1.9
2019-05-30T04:34:35.309Z,2.2
2019-05-30T04:35:35.480Z,2.2
2019-05-30T04:36:35.483Z,2.1
2019-05-30T04:37:35.478Z,2
2019-05-30T04:38:35.415Z,2.2
2019-05-30T04:39:35.488Z,2.2
2019-05-30T04:40:35.558Z,2.3
2019-05-30T04:41:35.590Z,2.1
2019-05-30T04:42:35.620Z,2.1
2019-05-30T04:43:35.675Z,2.2
2019-05-30T04:44:35.686Z,2.1
2019-05-30T04:45:35.682Z,2.4
2019-05-30T04:46:35.720Z,2.2
2019-05-30T04:47:35.743Z,2.1
2019-05-30T04:48:35.763Z,2.1
2019-05-30T04:49:35.768Z,2.4
2019-05-30T04:50:35.787Z,2.1
2019-05-30T04:51:35.811Z,2.1
2019-05-30T04:52:35.813Z,1.9
2019-05-30T04:53:35.801Z,2.2
2019-05-30T04:54:35.867Z,2
2019-05-30T04:55:35.963Z,2
2019-05-30T04:56:35.981Z,2.1
2019-05-30T04:57:36.060Z,1.8
2019-05-30T04:58:41.336Z,1.9
2019-05-30T04:59:36.217Z,1.9
2019-05-30T05:00:36.276Z,2.7
2019-05-30T05:01:36.398Z,2
2019-05-30T05:02:36.474Z,1.8
2019-05-30T05:03:45.547Z,1.7
2019-05-30T05:04:36.662Z,2.1
2019-05-30T05:05:36.828Z,1.7
2019-05-30T05:06:36.905Z,1.8
2019-05-30T05:07:37.944Z,2
2019-05-30T05:08:36.970Z,1.9
2019-05-30T05:09:37.007Z,2.2
2019-05-30T05:10:37.047Z,1.8
2019-05-30T05:11:37.122Z,1.8
2019-05-30T05:12:37.205Z,1.9
2019-05-30T05:13:37.283Z,1.8
2019-05-30T05:14:37.319Z,1.9
2019-05-30T05:15:37.391Z,1.9
2019-05-30T05:16:37.519Z,2
2019-05-30T05:17:38.593Z,1.9
2019-05-30T05:18:37.615Z,2
2019-05-30T05:19:38.650Z,2.1
2019-05-30T05:20:37.671Z,2
2019-05-30T05:21:37.707Z,1.8
2019-05-30T05:22:37.724Z,1.9
2019-05-30T05:23:37.723Z,2.2
2019-05-30T05:24:37.740Z,1.9
2019-05-30T05:25:37.780Z,2
2019-05-30T05:26:37.781Z,2.3
2019-05-30T05:27:37.984Z,2.1
2019-05-30T05:28:38.081Z,2.1
2019-05-30T05:29:38.043Z,2.1
2019-05-30T05:30:38.047Z,2.2
2019-05-30T05:31:38.081Z,2
2019-05-30T05:32:38.117Z,2
2019-05-30T05:33:38.219Z,1.9
2019-05-30T05:34:38.239Z,2.1
2019-05-30T05:35:38.276Z,2.2
2019-05-30T05:36:38.268Z,2
2019-05-30T05:37:38.307Z,2.2
2019-05-30T05:38:38.331Z,1.8
2019-05-30T05:39:38.326Z,2
2019-05-30T05:40:38.340Z,1.9
2019-05-30T05:41:38.357Z,1.9
2019-05-30T05:42:38.381Z,1.9
2019-05-30T05:43:38.418Z,2
2019-05-30T05:44:38.423Z,2
2019-05-30T05:45:38.423Z,2.1
2019-05-30T05:46:38.452Z,2
2019-05-30T05:47:38.473Z,1.9
2019-05-30T05:48:38.546Z,1.9
2019-05-30T05:49:38.555Z,1.8
2019-05-30T05:50:38.558Z,2
2019-05-30T05:51:38.587Z,2.2
2019-05-30T05:52:38.574Z,2
2019-05-30T05:53:38.635Z,2.1
2019-05-30T05:54:38.635Z,1.8
2019-05-30T05:55:38.629Z,2.1
2019-05-30T05:56:38.640Z,1.9
2019-05-30T05:57:38.651Z,1.7
2019-05-30T05:58:38.682Z,2
2019-05-30T05:59:38.689Z,1.9
2019-05-30T06:00:38.744Z,1.8
2019-05-30T06:01:38.750Z,1.9
2019-05-30T06:02:38.770Z,1.9
2019-05-30T06:03:38.834Z,1.7
2019-05-30T06:04:38.857Z,1.7
2019-05-30T06:05:52.090Z,1.9
2019-05-30T06:06:38.846Z,1.9
2019-05-30T06:07:38.906Z,1.7
2019-05-30T06:08:38.962Z,1.8
2019-05-30T06:09:39.033Z,2.1
2019-05-30T06:10:38.970Z,2
2019-05-30T06:11:39.000Z,2
2019-05-30T06:12:39.000Z,1.9
2019-05-30T06:13:40.046Z,1.9
2019-05-30T06:14:39.057Z,2.1
2019-05-30T06:15:39.049Z,2.1
2019-05-30T06:16:39.058Z,2
2019-05-30T06:17:39.063Z,2
2019-05-30T06:18:39.084Z,1.9
2019-05-30T06:19:46.157Z,1.9
2019-05-30T06:20:39.118Z,1.9
2019-05-30T06:21:52.907Z,2.1
2019-05-30T06:22:39.172Z,2.1
2019-05-30T06:23:39.213Z,2.3
2019-05-30T06:24:39.262Z,2
2019-05-30T06:25:39.274Z,1.7
2019-05-30T06:26:39.293Z,2.1
2019-05-30T06:27:39.299Z,2
2019-05-30T06:28:39.328Z,2
2019-05-30T06:29:39.360Z,1.9
2019-05-30T06:30:39.400Z,2.1
2019-05-30T06:31:39.413Z,2
2019-05-30T06:32:39.411Z,2.2
2019-05-30T06:33:39.449Z,2.3
2019-05-30T06:34:40.082Z,1.9
2019-05-30T06:35:39.622Z,2.1
2019-05-30T06:36:39.629Z,2.1
2019-05-30T06:37:40.654Z,2.1
2019-05-30T06:38:40.649Z,2.1
2019-05-30T06:39:39.683Z,2.3
2019-05-30T06:40:39.674Z,2.3
2019-05-30T06:41:39.893Z,2.3
2019-05-30T06:42:40.046Z,2
2019-05-30T06:43:40.098Z,2.2
2019-05-30T06:44:40.137Z,2.1
2019-05-30T06:45:40.179Z,1.9
2019-05-30T06:46:40.204Z,2.3
2019-05-30T06:47:40.201Z,2.2
2019-05-30T06:48:40.231Z,2.3
2019-05-30T06:49:40.265Z,2.2
2019-05-30T06:50:40.263Z,2.3
2019-05-30T06:51:40.266Z,2.2
2019-05-30T06:52:40.275Z,2.3
2019-05-30T06:53:40.289Z,2.4
2019-05-30T06:54:40.345Z,2.2
2019-05-30T06:55:40.362Z,2.4
2019-05-30T06:56:40.361Z,2.4
2019-05-30T06:57:40.361Z,2.6
2019-05-30T06:58:48.296Z,2.3
2019-05-30T06:59:40.593Z,2.3
2019-05-30T07:00:40.685Z,2.3
2019-05-30T07:01:40.690Z,2.6
2019-05-30T07:02:40.745Z,2.1
2019-05-30T07:03:40.929Z,2.5
2019-05-30T07:04:51.271Z,2.5
2019-05-30T07:05:41.205Z,2.3
2019-05-30T07:06:41.151Z,2.3
2019-05-30T07:07:41.031Z,2.3
2019-05-30T07:08:41.072Z,2.4
2019-05-30T07:09:41.077Z,2.1
2019-05-30T07:10:41.167Z,2.1
2019-05-30T07:11:41.400Z,2
2019-05-30T07:12:41.232Z,1.9
2019-05-30T07:13:41.267Z,1.6
2019-05-30T07:14:41.305Z,1.8
2019-05-30T07:15:41.333Z,1.9
2019-05-30T07:16:41.335Z,1.9
2019-05-30T07:17:41.370Z,1.7
2019-05-30T07:18:41.440Z,1.6
2019-05-30T07:19:41.456Z,1.7
2019-05-30T07:20:41.494Z,1.5
2019-05-30T07:21:41.512Z,1.4
2019-05-30T07:22:41.523Z,1.3
2019-05-30T07:23:41.543Z,1.3
2019-05-30T07:24:42.696Z,1.4
2019-05-30T07:25:41.757Z,1.7
2019-05-30T07:26:41.751Z,1.3
2019-05-30T07:27:41.788Z,1.4
2019-05-30T07:28:41.833Z,1.3
2019-05-30T07:29:41.861Z,1.5
2019-05-30T07:30:41.927Z,1.4
2019-05-30T07:31:41.977Z,1.4
2019-05-30T07:32:41.992Z,1.7
2019-05-30T07:33:42.002Z,1.4
2019-05-30T07:34:45.659Z,1.3
2019-05-30T07:35:42.140Z,1.3
2019-05-30T07:36:42.158Z,1.7
2019-05-30T07:37:42.183Z,1.5
2019-05-30T07:38:42.205Z,1.5
2019-05-30T07:39:42.190Z,1.5
2019-05-30T07:40:42.406Z,1.5
2019-05-30T07:41:42.270Z,1.7
2019-05-30T07:42:42.343Z,1.4
2019-05-30T07:43:42.371Z,1.5
2019-05-30T07:44:42.419Z,1.6
2019-05-30T07:45:46.828Z,1.7
2019-05-30T07:46:42.557Z,1.6
2019-05-30T07:47:42.588Z,1.7
2019-05-30T07:48:43.582Z,1.8
2019-05-30T07:49:42.570Z,1.7
2019-05-30T07:50:42.570Z,1.4
2019-05-30T07:51:42.697Z,1.4
2019-05-30T07:52:42.677Z,1.6
2019-05-30T07:53:42.721Z,1.5
2019-05-30T07:54:42.816Z,1.6
2019-05-30T07:55:42.833Z,1.6
2019-05-30T07:56:42.879Z,1.8
2019-05-30T07:57:42.858Z,1.9
2019-05-30T07:58:43.053Z,1.4
2019-05-30T07:59:43.091Z,1.5
2019-05-30T08:00:43.087Z,1.6
2019-05-30T08:01:43.196Z,1.6
2019-05-30T08:02:43.203Z,1.7
2019-05-30T08:03:43.211Z,1.7
2019-05-30T08:04:46.699Z,1.8
2019-05-30T08:05:43.189Z,1.6
2019-05-30T08:06:43.200Z,1.6
2019-05-30T08:07:43.222Z,1.7
2019-05-30T08:08:43.202Z,1.7
2019-05-30T08:09:43.217Z,1.9
2019-05-30T08:10:43.229Z,1.9
2019-05-30T08:11:43.418Z,1.9
2019-05-30T08:12:43.262Z,1.8
2019-05-30T08:13:43.313Z,1.8
2019-05-30T08:14:43.346Z,1.8
2019-05-30T08:15:44.125Z,1.7
2019-05-30T08:16:43.426Z,1.5
2019-05-30T08:17:44.491Z,1.8
2019-05-30T08:18:43.481Z,1.9
2019-05-30T08:19:43.455Z,1.7
2019-05-30T08:20:43.650Z,1.6
2019-05-30T08:21:43.662Z,1.6
2019-05-30T08:22:43.695Z,1.7
2019-05-30T08:23:43.722Z,1.8
2019-05-30T08:24:43.720Z,1.7
2019-05-30T08:25:43.733Z,1.6
2019-05-30T08:26:43.740Z,1.8
2019-05-30T08:27:43.755Z,1.7
2019-05-30T08:28:43.777Z,1.7
2019-05-30T08:29:43.831Z,1.7
2019-05-30T08:30:43.828Z,1.8
2019-05-30T08:31:43.837Z,1.9
2019-05-30T08:32:44.031Z,1.9
2019-05-30T08:33:47.275Z,1.8
2019-05-30T08:34:44.033Z,1.8
2019-05-30T08:35:49.738Z,1.9
2019-05-30T08:36:44.325Z,1.9
2019-05-30T08:37:44.360Z,1.7
2019-05-30T08:38:47.374Z,1.8
2019-05-30T08:39:44.342Z,1.9
2019-05-30T08:40:44.514Z,2
2019-05-30T08:41:45.746Z,2.2
2019-05-30T08:42:44.747Z,1.6
2019-05-30T08:43:44.730Z,1.7
2019-05-30T08:44:45.035Z,1.8
2019-05-30T08:45:45.033Z,1.7
2019-05-30T08:46:45.035Z,1.8
2019-05-30T08:47:45.076Z,2
2019-05-30T08:48:45.137Z,1.8
2019-05-30T08:49:45.159Z,2
2019-05-30T08:50:45.263Z,2.1
2019-05-30T08:51:45.311Z,2.3
2019-05-30T08:52:45.393Z,1.9
2019-05-30T08:53:45.428Z,2
2019-05-30T08:54:45.464Z,2
2019-05-30T08:55:45.467Z,1.7
2019-05-30T08:56:45.458Z,1.9
2019-05-30T08:57:45.729Z,1.9
2019-05-30T08:58:45.590Z,2
2019-05-30T08:59:46.068Z,1.8
2019-05-30T09:00:45.719Z,2
2019-05-30T09:01:46.442Z,1.8
2019-05-30T09:02:46.908Z,1.8
2019-05-30T09:03:46.307Z,1.8
2019-05-30T09:04:46.071Z,1.9
2019-05-30T09:05:58.972Z,2.4
2019-05-30T09:06:46.135Z,2.2
2019-05-30T09:07:46.370Z,2
2019-05-30T09:08:46.397Z,1.9
2019-05-30T09:09:46.413Z,2.1
2019-05-30T09:10:46.470Z,2.1
2019-05-30T09:11:46.381Z,2
2019-05-30T09:12:49.440Z,1.8
2019-05-30T09:13:46.717Z,2
2019-05-30T09:14:46.908Z,2
2019-05-30T09:15:47.058Z,2.1
2019-05-30T09:16:47.776Z,2.1
2019-05-30T09:17:46.847Z,2
2019-05-30T09:18:47.433Z,2.3
2019-05-30T09:19:47.458Z,2.4
2019-05-30T09:20:47.426Z,2.2
2019-05-30T09:21:47.460Z,1.9
2019-05-30T09:22:47.405Z,2.3
2019-05-30T09:23:47.960Z,2.2
2019-05-30T09:24:47.934Z,2.4
2019-05-30T09:25:49.333Z,2
2019-05-30T09:26:49.908Z,1.9
2019-05-30T09:27:48.324Z,2.1
2019-05-30T09:28:48.171Z,2.1
2019-05-30T09:29:48.215Z,2.1
2019-05-30T09:30:48.400Z,2.2
2019-05-30T09:31:48.605Z,2.3
2019-05-30T09:32:47.448Z,2.2
2019-05-30T09:33:50.042Z,2.2
2019-05-30T09:34:48.870Z,2.1
2019-05-30T09:35:49.055Z,2.5
2019-05-30T09:36:48.953Z,2.4
2019-05-30T09:37:47.964Z,2.3
2019-05-30T09:38:49.711Z,2.3
2019-05-30T09:39:49.399Z,2.1
2019-05-30T09:40:48.173Z,2.4
2019-05-30T09:41:48.172Z,2.5
2019-05-30T09:42:48.620Z,2.3
2019-05-30T09:43:48.225Z,2.6
2019-05-30T09:44:50.869Z,2.6
2019-05-30T09:45:48.279Z,2.6
2019-05-30T09:46:48.534Z,2.3
2019-05-30T09:47:49.257Z,2.3
2019-05-30T09:50:28.995Z,2.3
2019-05-30T09:51:43.973Z,2.5
2019-05-30T09:52:43.503Z,2.4
2019-05-30T09:53:43.829Z,2.6
2019-05-30T09:54:44.197Z,2.6
2019-05-30T09:55:43.300Z,2.5
2019-05-30T09:56:43.700Z,2.8
2019-05-30T09:57:44.172Z,2.6
2019-05-30T09:58:43.969Z,2.7
2019-05-30T09:59:43.475Z,2.3
2019-05-30T10:00:44.813Z,2.8
2019-05-30T10:01:44.229Z,2.6
2019-05-30T10:02:44.502Z,2.8
2019-05-30T10:03:43.566Z,2.8
2019-05-30T10:04:43.842Z,2.4
2019-05-30T10:05:43.718Z,2.5
2019-05-30T10:06:43.512Z,2.6
2019-05-30T10:07:43.963Z,2.6
2019-05-30T10:08:44.255Z,2.5
2019-05-30T10:09:44.432Z,2.3
2019-05-30T10:10:44.210Z,2.7
2019-05-30T10:11:44.397Z,2.7
2019-05-30T10:12:43.840Z,2.8
2019-05-30T10:13:43.959Z,2.6
2019-05-30T10:14:45.085Z,2.4
2019-05-30T10:15:44.038Z,2.5
2019-05-30T10:16:47.812Z,2.6
2019-05-30T10:17:45.752Z,2.8
2019-05-30T10:19:45.780Z,2.6
2019-05-30T10:20:44.413Z,2.6
2019-05-30T10:21:45.895Z,2.5
2019-05-30T10:22:44.489Z,2.7
2019-05-30T10:23:45.786Z,2.3
2019-05-30T10:24:44.586Z,2.6
2019-05-30T10:25:46.447Z,2.5
2019-05-30T10:26:45.945Z,2.7
2019-05-30T10:28:46.361Z,2.9
2019-05-30T10:30:49.839Z,2.6
2019-05-30T10:33:46.209Z,2.5
2019-05-30T10:35:46.045Z,2.6
2019-05-30T10:36:46.085Z,2.6
2019-05-30T10:37:45.718Z,2.7
2019-05-30T10:38:45.404Z,2.4
2019-05-30T10:39:45.626Z,2.5
2019-05-30T10:40:45.614Z,2.8
2019-05-30T10:41:45.904Z,2.3
2019-05-30T10:42:46.163Z,2.7
2019-05-30T10:43:45.938Z,2.9
2019-05-30T10:44:46.032Z,2.6
2019-05-30T10:45:46.514Z,2.6
2019-05-30T10:46:46.985Z,2.6
2019-05-30T10:47:45.866Z,2.7
2019-05-30T10:48:47.240Z,3.2
2019-05-30T10:49:45.283Z,3.3
2019-05-30T10:50:46.824Z,3
2019-05-30T10:51:46.261Z,2.6
2019-05-30T10:52:45.373Z,2.9
2019-05-30T10:53:45.436Z,3
2019-05-30T10:54:46.424Z,2.8
2019-05-30T10:55:45.262Z,3.4
2019-05-30T10:56:46.709Z,2.8
2019-05-30T10:57:46.687Z,2.8
2019-05-30T10:58:46.503Z,2.6
2019-05-30T10:59:45.934Z,2.7
2019-05-30T11:00:45.622Z,2.8
2019-05-30T11:01:46.561Z,2.8
2019-05-30T11:02:46.007Z,2.9
2019-05-30T11:03:45.825Z,2.9
2019-05-30T11:04:45.908Z,3.2
2019-05-30T11:05:47.489Z,3.4
2019-05-30T11:06:59.206Z,3.7
2019-05-30T11:07:56.007Z,3.5
2019-05-30T11:08:47.839Z,3.3
2019-05-30T11:13:46.920Z,2.9
2019-05-30T11:15:48.134Z,3.3
2019-05-30T11:17:47.209Z,3.4
2019-05-30T11:18:47.477Z,3.5
2019-05-30T11:22:46.296Z,3.4
2019-05-30T11:23:46.311Z,3.1
2019-05-30T11:24:46.324Z,3.4
2019-05-30T11:25:46.370Z,3.5
2019-05-30T11:26:46.388Z,3.8
2019-05-30T11:27:46.464Z,3.5
2019-05-30T11:28:46.483Z,3.1
2019-05-30T11:29:46.516Z,3.3
2019-05-30T11:30:46.737Z,3.4
2019-05-30T11:31:49.093Z,3.3
2019-05-30T11:32:50.721Z,3.5
2019-05-30T11:33:48.617Z,3.3
2019-05-30T11:34:48.984Z,3.3
2019-05-30T11:35:52.877Z,3.2
2019-05-30T11:36:47.283Z,3.5
2019-05-30T11:37:48.923Z,3.2
2019-05-30T11:38:47.508Z,3.1
2019-05-30T11:39:47.614Z,3.2
2019-05-30T11:40:47.440Z,3.3
2019-05-30T11:41:47.442Z,3
2019-05-30T11:42:47.468Z,2.8
2019-05-30T11:43:47.558Z,3.2
2019-05-30T11:44:49.609Z,3
2019-05-30T11:45:47.773Z,2.8
2019-05-30T11:46:47.843Z,3
2019-05-30T11:47:47.693Z,3.1
2019-05-30T11:48:47.722Z,2.6
2019-05-30T11:49:47.748Z,2.8
2019-05-30T11:50:47.772Z,2.9
2019-05-30T11:51:47.833Z,2.8
2019-05-30T11:52:47.868Z,2.9
2019-05-30T11:53:47.937Z,2.6
2019-05-30T11:54:47.994Z,2.2
2019-05-30T11:55:48.043Z,2.6
2019-05-30T11:56:48.053Z,3.1
2019-05-30T11:57:48.123Z,3.1
2019-05-30T11:58:48.172Z,3
2019-05-30T11:59:48.204Z,2.6
2019-05-30T12:00:48.220Z,2.7
2019-05-30T12:01:48.243Z,2.9
2019-05-30T12:02:48.270Z,2.2
2019-05-30T12:03:48.344Z,2.5
2019-05-30T12:04:48.356Z,2.5
2019-05-30T12:05:48.375Z,3
2019-05-30T12:06:48.427Z,2.8
2019-05-30T12:07:48.471Z,2.6
2019-05-30T12:08:48.536Z,3.3
2019-05-30T12:09:48.590Z,3.1
2019-05-30T12:10:48.607Z,3.2
2019-05-30T12:11:48.731Z,3.3
2019-05-30T12:12:48.758Z,2.9
2019-05-30T12:13:48.797Z,3.7
2019-05-30T12:14:48.841Z,3.3
2019-05-30T12:15:48.869Z,3.1
2019-05-30T12:16:48.894Z,3.3
2019-05-30T12:17:48.913Z,3.3
2019-05-30T12:18:48.955Z,3.5
2019-05-30T12:19:49.008Z,2.9
2019-05-30T12:20:49.025Z,2.5
2019-05-30T12:21:49.043Z,2.9
2019-05-30T12:22:49.068Z,2.6
2019-05-30T12:23:49.095Z,2.8
2019-05-30T12:24:49.133Z,2.7
2019-05-30T12:25:49.143Z,2.6
2019-05-30T12:26:49.164Z,2.9
2019-05-30T12:27:49.186Z,2.8
2019-05-30T12:28:49.202Z,2.9
2019-05-30T12:29:49.278Z,2.7
2019-05-30T12:30:56.379Z,2.5
2019-05-30T12:31:49.340Z,2.7
2019-05-30T12:32:49.347Z,2.3
2019-05-30T12:33:49.374Z,2.6
2019-05-30T12:34:49.423Z,2.7
2019-05-30T12:35:49.503Z,2.3
2019-05-30T12:36:49.550Z,2.4
2019-05-30T12:37:55.815Z,2.6
2019-05-30T12:38:49.574Z,2.6
2019-05-30T12:39:49.606Z,2.7
2019-05-30T12:40:49.670Z,2.7
2019-05-30T12:41:49.689Z,2.3
2019-05-30T12:42:49.738Z,3
2019-05-30T12:43:49.767Z,2.9
2019-05-30T12:44:49.785Z,3.1
2019-05-30T12:45:49.851Z,3.2
2019-05-30T12:46:49.929Z,3.2
2019-05-30T12:47:49.976Z,3.7
2019-05-30T12:48:50.013Z,3.5
2019-05-30T12:49:50.052Z,3.4
2019-05-30T12:50:50.100Z,3.2
2019-05-30T12:51:50.122Z,3.4
2019-05-30T12:52:50.126Z,4.3
2019-05-30T12:53:50.188Z,4.3
2019-05-30T12:54:50.172Z,4.2
2019-05-30T12:55:50.221Z,4.3
2019-05-30T12:56:50.221Z,4.1
2019-05-30T12:57:50.253Z,4.4
2019-05-30T12:58:50.315Z,4
2019-05-30T12:59:50.327Z,4.2
2019-05-30T13:00:50.376Z,4.5
2019-05-30T13:01:50.415Z,4.6
2019-05-30T13:02:50.454Z,4.4
2019-05-30T13:03:50.480Z,4.1
2019-05-30T13:04:50.518Z,4.2
2019-05-30T13:05:50.571Z,4.4
2019-05-30T13:06:53.760Z,4.5
2019-05-30T13:07:50.633Z,4.5
2019-05-30T13:08:50.661Z,4.3
2019-05-30T13:09:50.695Z,4.4
2019-05-30T13:10:50.729Z,4.3
2019-05-30T13:11:50.789Z,4.2
2019-05-30T13:12:50.816Z,4.4
2019-05-30T13:13:50.830Z,4.1
2019-05-30T13:14:50.835Z,4.4
2019-05-30T13:15:50.842Z,4.7
2019-05-30T13:16:50.902Z,5.8
2019-05-30T13:17:50.923Z,5.2
2019-05-30T13:18:50.953Z,6.2
2019-05-30T13:19:51.032Z,6
2019-05-30T13:20:51.042Z,5.9
2019-05-30T13:21:53.740Z,6.1
2019-05-30T13:22:51.109Z,6.4
2019-05-30T13:23:51.130Z,5.5
2019-05-30T13:24:51.126Z,5.8
2019-05-30T13:25:51.227Z,6
2019-05-30T13:26:51.271Z,5.5
2019-05-30T13:27:51.309Z,6.1
2019-05-30T13:28:51.343Z,6.2
2019-05-30T13:29:51.360Z,6
2019-05-30T13:30:51.380Z,6
2019-05-30T13:31:51.491Z,5.8
2019-05-30T13:32:51.664Z,5.8
2019-05-30T13:33:51.538Z,6.7
2019-05-30T13:34:51.545Z,6.9
2019-05-30T13:35:51.571Z,7.4
2019-05-30T13:36:51.596Z,8.3
2019-05-30T13:37:51.639Z,8.5
2019-05-30T13:38:51.651Z,8.3
2019-05-30T13:39:51.664Z,8.8
2019-05-30T13:40:52.668Z,9.2
2019-05-30T13:41:51.700Z,8.8
2019-05-30T13:42:51.740Z,9.6
2019-05-30T13:43:51.766Z,9.7
2019-05-30T13:44:51.772Z,9.4
2019-05-30T13:45:51.853Z,9.8
2019-05-30T13:46:51.866Z,10
2019-05-30T13:47:51.916Z,9.8
2019-05-30T13:48:51.956Z,9.9
2019-05-30T13:49:51.964Z,10.4
2019-05-30T13:50:52.016Z,9.9
2019-05-30T13:51:52.036Z,10.8
2019-05-30T13:52:52.106Z,10.3
2019-05-30T13:53:52.136Z,10.7
2019-05-30T13:54:52.169Z,10.9
2019-05-30T13:55:52.194Z,11.6
2019-05-30T13:56:52.198Z,11.2
2019-05-30T13:57:52.276Z,12.4
2019-05-30T13:58:52.291Z,11.3
2019-05-30T13:59:52.321Z,12.4
2019-05-30T14:00:52.377Z,13.1
2019-05-30T14:01:52.417Z,12.4
2019-05-30T14:02:52.468Z,12.2
2019-05-30T14:03:52.476Z,12.6
2019-05-30T14:04:52.477Z,13
2019-05-30T14:05:52.485Z,12.1
2019-05-30T14:06:52.537Z,12.5
2019-05-30T14:07:52.571Z,12
2019-05-30T14:08:52.599Z,12.5
2019-05-30T14:09:52.623Z,12.6
2019-05-30T14:10:52.646Z,12
2019-05-30T14:11:52.667Z,12.3
2019-05-30T14:12:52.734Z,11.9
2019-05-30T14:13:52.754Z,11.4
2019-05-30T14:14:52.792Z,11.9
2019-05-30T14:15:52.816Z,11.8
2019-05-30T14:16:52.841Z,11.8
2019-05-30T14:17:52.916Z,11.3